sensor_id;sensor_type;location;lat;lon;timestamp;temperature;humidity
53645;DHT22;39547;45.554;12.068;2023-02-03T00:01:26;3.10;88.90
53645;DHT22;39547;45.554;12.068;2023-02-03T00:07:28;3.10;88.70
53645;DHT22;39547;45.554;12.068;2023-02-03T00:13:30;3.10;88.80
53645;DHT22;39547;45.554;12.068;2023-02-03T00:19:31;3.10;89.00
53645;DHT22;39547;45.554;12.068;2023-02-03T00:25:33;3.00;88.80
53645;DHT22;39547;45.554;12.068;2023-02-03T00:31:34;3.00;88.90
53645;DHT22;39547;45.554;12.068;2023-02-03T00:37:36;3.00;88.90
53645;DHT22;39547;45.554;12.068;2023-02-03T00:43:37;2.90;88.80
53645;DHT22;39547;45.554;12.068;2023-02-03T00:49:39;2.90;88.90
53645;DHT22;39547;45.554;12.068;2023-02-03T00:55:42;2.90;88.90
53645;DHT22;39547;45.554;12.068;2023-02-03T01:01:44;2.80;88.90
53645;DHT22;39547;45.554;12.068;2023-02-03T01:07:46;2.80;88.70
53645;DHT22;39547;45.554;12.068;2023-02-03T01:13:48;2.80;88.90
53645;DHT22;39547;45.554;12.068;2023-02-03T01:19:51;2.70;88.80
53645;DHT22;39547;45.554;12.068;2023-02-03T01:25:52;2.70;88.80
53645;DHT22;39547;45.554;12.068;2023-02-03T01:31:53;2.70;88.80
53645;DHT22;39547;45.554;12.068;2023-02-03T01:37:55;2.60;88.90
53645;DHT22;39547;45.554;12.068;2023-02-03T01:43:58;2.60;88.80
53645;DHT22;39547;45.554;12.068;2023-02-03T01:56:04;2.60;88.80
53645;DHT22;39547;45.554;12.068;2023-02-03T02:02:07;2.60;88.90
53645;DHT22;39547;45.554;12.068;2023-02-03T02:08:08;2.50;88.70
53645;DHT22;39547;45.554;12.068;2023-02-03T02:14:11;2.50;88.90
53645;DHT22;39547;45.554;12.068;2023-02-03T02:26:49;2.40;88.70
53645;DHT22;39547;45.554;12.068;2023-02-03T02:33:23;2.50;89.00
53645;DHT22;39547;45.554;12.068;2023-02-03T02:39:48;2.60;89.20
53645;DHT22;39547;45.554;12.068;2023-02-03T02:45:58;2.70;88.90
53645;DHT22;39547;45.554;12.068;2023-02-03T02:52:03;2.70;88.40
53645;DHT22;39547;45.554;12.068;2023-02-03T02:58:10;2.70;88.90
53645;DHT22;39547;45.554;12.068;2023-02-03T03:04:15;2.70;88.70
53645;DHT22;39547;45.554;12.068;2023-02-03T03:10:22;2.70;89.00
53645;DHT22;39547;45.554;12.068;2023-02-03T03:16:26;2.80;89.30
53645;DHT22;39547;45.554;12.068;2023-02-03T03:22:34;2.90;89.20
53645;DHT22;39547;45.554;12.068;2023-02-03T03:28:47;3.10;89.30
53645;DHT22;39547;45.554;12.068;2023-02-03T03:34:49;3.20;89.20
53645;DHT22;39547;45.554;12.068;2023-02-03T03:40:57;3.20;89.10
53645;DHT22;39547;45.554;12.068;2023-02-03T03:47:20;3.30;89.40
53645;DHT22;39547;45.554;12.068;2023-02-03T03:53:24;3.40;89.40
53645;DHT22;39547;45.554;12.068;2023-02-03T03:59:31;3.40;89.20
53645;DHT22;39547;45.554;12.068;2023-02-03T04:05:37;3.20;88.60
53645;DHT22;39547;45.554;12.068;2023-02-03T04:11:39;3.10;88.80
53645;DHT22;39547;45.554;12.068;2023-02-03T04:18:00;3.00;89.00
53645;DHT22;39547;45.554;12.068;2023-02-03T04:24:01;2.90;88.80
53645;DHT22;39547;45.554;12.068;2023-02-03T04:30:03;2.80;88.80
53645;DHT22;39547;45.554;12.068;2023-02-03T04:36:05;2.70;89.00
53645;DHT22;39547;45.554;12.068;2023-02-03T04:42:07;2.60;88.80
53645;DHT22;39547;45.554;12.068;2023-02-03T04:48:08;2.50;88.80
53645;DHT22;39547;45.554;12.068;2023-02-03T04:54:10;2.50;88.90
53645;DHT22;39547;45.554;12.068;2023-02-03T05:00:12;2.40;88.90
53645;DHT22;39547;45.554;12.068;2023-02-03T05:06:14;2.40;89.00
53645;DHT22;39547;45.554;12.068;2023-02-03T05:12:15;2.30;89.00
53645;DHT22;39547;45.554;12.068;2023-02-03T05:18:17;2.40;89.20
53645;DHT22;39547;45.554;12.068;2023-02-03T05:24:18;2.40;89.00
53645;DHT22;39547;45.554;12.068;2023-02-03T05:30:20;2.40;89.40
53645;DHT22;39547;45.554;12.068;2023-02-03T05:36:21;2.50;89.30
53645;DHT22;39547;45.554;12.068;2023-02-03T05:42:22;2.70;89.50
53645;DHT22;39547;45.554;12.068;2023-02-03T05:48:24;2.80;89.70
53645;DHT22;39547;45.554;12.068;2023-02-03T05:54:25;3.00;89.60
53645;DHT22;39547;45.554;12.068;2023-02-03T06:00:27;3.10;89.40
53645;DHT22;39547;45.554;12.068;2023-02-03T06:06:29;3.20;89.50
53645;DHT22;39547;45.554;12.068;2023-02-03T06:12:35;3.20;89.20
53645;DHT22;39547;45.554;12.068;2023-02-03T06:18:37;3.20;89.50
53645;DHT22;39547;45.554;12.068;2023-02-03T06:24:38;3.30;89.70
53645;DHT22;39547;45.554;12.068;2023-02-03T06:30:40;3.50;89.80
53645;DHT22;39547;45.554;12.068;2023-02-03T06:36:41;3.50;89.70
53645;DHT22;39547;45.554;12.068;2023-02-03T06:42:46;3.50;89.30
53645;DHT22;39547;45.554;12.068;2023-02-03T06:48:48;3.50;89.20
53645;DHT22;39547;45.554;12.068;2023-02-03T06:54:50;3.50;89.20
53645;DHT22;39547;45.554;12.068;2023-02-03T07:00:54;3.50;89.50
53645;DHT22;39547;45.554;12.068;2023-02-03T07:06:56;3.70;89.80
53645;DHT22;39547;45.554;12.068;2023-02-03T07:13:02;3.70;89.80
53645;DHT22;39547;45.554;12.068;2023-02-03T07:19:04;3.70;90.00
53645;DHT22;39547;45.554;12.068;2023-02-03T07:25:06;3.90;90.10
53645;DHT22;39547;45.554;12.068;2023-02-03T07:31:07;3.90;90.00
53645;DHT22;39547;45.554;12.068;2023-02-03T07:37:10;4.00;89.90
53645;DHT22;39547;45.554;12.068;2023-02-03T07:43:11;4.10;89.80
53645;DHT22;39547;45.554;12.068;2023-02-03T07:49:13;4.10;89.90
53645;DHT22;39547;45.554;12.068;2023-02-03T07:55:15;4.20;90.10
53645;DHT22;39547;45.554;12.068;2023-02-03T08:01:16;4.20;90.20
53645;DHT22;39547;45.554;12.068;2023-02-03T08:07:18;4.30;90.40
53645;DHT22;39547;45.554;12.068;2023-02-03T08:13:19;4.50;90.60
53645;DHT22;39547;45.554;12.068;2023-02-03T08:19:21;4.70;90.70
53645;DHT22;39547;45.554;12.068;2023-02-03T08:25:23;4.80;90.60
53645;DHT22;39547;45.554;12.068;2023-02-03T08:31:24;4.90;90.50
53645;DHT22;39547;45.554;12.068;2023-02-03T08:37:25;5.00;90.80
53645;DHT22;39547;45.554;12.068;2023-02-03T08:43:28;5.20;91.00
53645;DHT22;39547;45.554;12.068;2023-02-03T08:49:30;5.40;90.70
53645;DHT22;39547;45.554;12.068;2023-02-03T08:55:31;5.50;90.80
53645;DHT22;39547;45.554;12.068;2023-02-03T09:01:33;5.60;90.30
53645;DHT22;39547;45.554;12.068;2023-02-03T09:07:34;5.80;90.50
53645;DHT22;39547;45.554;12.068;2023-02-03T09:13:36;6.00;90.80
53645;DHT22;39547;45.554;12.068;2023-02-03T09:19:38;6.20;89.80
53645;DHT22;39547;45.554;12.068;2023-02-03T09:25:40;6.20;90.10
53645;DHT22;39547;45.554;12.068;2023-02-03T09:31:41;6.40;90.60
53645;DHT22;39547;45.554;12.068;2023-02-03T09:37:43;6.60;90.40
53645;DHT22;39547;45.554;12.068;2023-02-03T09:43:46;6.70;90.60
53645;DHT22;39547;45.554;12.068;2023-02-03T09:49:58;6.90;90.10
53645;DHT22;39547;45.554;12.068;2023-02-03T09:56:00;7.00;89.40
53645;DHT22;39547;45.554;12.068;2023-02-03T10:21:36;7.50;89.00
53645;DHT22;39547;45.554;12.068;2023-02-03T10:27:40;7.70;89.00
53645;DHT22;39547;45.554;12.068;2023-02-03T10:33:42;7.90;88.70
53645;DHT22;39547;45.554;12.068;2023-02-03T10:39:49;8.10;88.70
53645;DHT22;39547;45.554;12.068;2023-02-03T10:45:51;8.20;88.60
53645;DHT22;39547;45.554;12.068;2023-02-03T10:51:57;8.40;88.60
53645;DHT22;39547;45.554;12.068;2023-02-03T10:58:07;8.50;84.90
53645;DHT22;39547;45.554;12.068;2023-02-03T11:04:29;8.60;86.20
53645;DHT22;39547;45.554;12.068;2023-02-03T11:10:32;8.80;87.70
53645;DHT22;39547;45.554;12.068;2023-02-03T11:16:36;9.00;87.50
53645;DHT22;39547;45.554;12.068;2023-02-03T11:22:38;9.00;86.40
53645;DHT22;39547;45.554;12.068;2023-02-03T11:28:42;9.10;86.70
53645;DHT22;39547;45.554;12.068;2023-02-03T11:34:48;9.20;86.80
53645;DHT22;39547;45.554;12.068;2023-02-03T11:41:00;9.30;82.80
53645;DHT22;39547;45.554;12.068;2023-02-03T11:47:09;9.30;84.60
53645;DHT22;39547;45.554;12.068;2023-02-03T12:05:32;9.70;85.80
53645;DHT22;39547;45.554;12.068;2023-02-03T12:18:11;10.00;84.40
53645;DHT22;39547;45.554;12.068;2023-02-03T12:25:02;10.10;81.40
53645;DHT22;39547;45.554;12.068;2023-02-03T12:37:53;10.20;80.80
53645;DHT22;39547;45.554;12.068;2023-02-03T12:44:00;10.30;83.10
53645;DHT22;39547;45.554;12.068;2023-02-03T12:56:26;10.40;81.00
53645;DHT22;39547;45.554;12.068;2023-02-03T13:02:39;10.40;81.40
53645;DHT22;39547;45.554;12.068;2023-02-03T13:08:45;10.60;81.90
53645;DHT22;39547;45.554;12.068;2023-02-03T13:15:19;10.80;82.50
53645;DHT22;39547;45.554;12.068;2023-02-03T13:21:22;11.10;82.60
53645;DHT22;39547;45.554;12.068;2023-02-03T13:27:36;11.20;81.90
53645;DHT22;39547;45.554;12.068;2023-02-03T13:46:25;11.20;80.70
53645;DHT22;39547;45.554;12.068;2023-02-03T13:52:33;11.20;81.20
53645;DHT22;39547;45.554;12.068;2023-02-03T13:58:37;11.20;81.60
53645;DHT22;39547;45.554;12.068;2023-02-03T14:10:46;11.00;81.50
53645;DHT22;39547;45.554;12.068;2023-02-03T14:16:51;10.80;81.50
53645;DHT22;39547;45.554;12.068;2023-02-03T14:29:00;10.50;82.40
53645;DHT22;39547;45.554;12.068;2023-02-03T14:35:15;10.60;82.50
53645;DHT22;39547;45.554;12.068;2023-02-03T14:41:19;10.70;82.40
53645;DHT22;39547;45.554;12.068;2023-02-03T14:54:03;10.50;81.80
53645;DHT22;39547;45.554;12.068;2023-02-03T15:06:39;10.20;81.50
53645;DHT22;39547;45.554;12.068;2023-02-03T15:12:47;10.00;81.60
53645;DHT22;39547;45.554;12.068;2023-02-03T15:18:54;9.70;82.10
53645;DHT22;39547;45.554;12.068;2023-02-03T15:25:01;9.50;82.50
53645;DHT22;39547;45.554;12.068;2023-02-03T15:31:13;9.30;82.90
53645;DHT22;39547;45.554;12.068;2023-02-03T15:37:36;9.10;83.20
53645;DHT22;39547;45.554;12.068;2023-02-03T15:43:41;8.90;83.60
53645;DHT22;39547;45.554;12.068;2023-02-03T15:49:45;8.80;83.90
53645;DHT22;39547;45.554;12.068;2023-02-03T15:55:54;8.70;84.10
53645;DHT22;39547;45.554;12.068;2023-02-03T16:01:57;8.70;84.40
53645;DHT22;39547;45.554;12.068;2023-02-03T16:08:26;8.50;84.50
53645;DHT22;39547;45.554;12.068;2023-02-03T16:14:34;8.40;84.80
53645;DHT22;39547;45.554;12.068;2023-02-03T16:20:36;8.20;85.00
53645;DHT22;39547;45.554;12.068;2023-02-03T16:26:37;8.20;85.20
53645;DHT22;39547;45.554;12.068;2023-02-03T16:32:39;8.00;85.40
53645;DHT22;39547;45.554;12.068;2023-02-03T16:39:08;7.90;85.70
53645;DHT22;39547;45.554;12.068;2023-02-03T16:45:29;7.70;85.80
53645;DHT22;39547;45.554;12.068;2023-02-03T16:51:49;7.60;86.00
53645;DHT22;39547;45.554;12.068;2023-02-03T16:57:51;7.50;86.20
53645;DHT22;39547;45.554;12.068;2023-02-03T17:03:52;7.40;86.30
53645;DHT22;39547;45.554;12.068;2023-02-03T17:09:53;7.40;86.60
53645;DHT22;39547;45.554;12.068;2023-02-03T17:15:55;7.30;86.60
53645;DHT22;39547;45.554;12.068;2023-02-03T17:21:57;7.20;86.80
53645;DHT22;39547;45.554;12.068;2023-02-03T17:27:58;7.20;87.00
53645;DHT22;39547;45.554;12.068;2023-02-03T17:34:00;7.20;87.00
53645;DHT22;39547;45.554;12.068;2023-02-03T17:40:02;7.10;87.20
53645;DHT22;39547;45.554;12.068;2023-02-03T17:46:05;7.10;87.30
53645;DHT22;39547;45.554;12.068;2023-02-03T17:52:06;7.00;87.30
53645;DHT22;39547;45.554;12.068;2023-02-03T17:58:08;7.00;87.50
53645;DHT22;39547;45.554;12.068;2023-02-03T18:04:09;6.90;87.50
53645;DHT22;39547;45.554;12.068;2023-02-03T18:10:11;6.80;87.50
53645;DHT22;39547;45.554;12.068;2023-02-03T18:16:19;6.70;87.70
53645;DHT22;39547;45.554;12.068;2023-02-03T18:22:22;6.60;87.60
53645;DHT22;39547;45.554;12.068;2023-02-03T18:28:24;6.50;87.70
53645;DHT22;39547;45.554;12.068;2023-02-03T18:34:25;6.50;87.90
53645;DHT22;39547;45.554;12.068;2023-02-03T18:40:27;6.40;87.90
53645;DHT22;39547;45.554;12.068;2023-02-03T18:46:30;6.40;88.00
53645;DHT22;39547;45.554;12.068;2023-02-03T18:52:31;6.40;88.10
53645;DHT22;39547;45.554;12.068;2023-02-03T18:58:33;6.40;87.90
53645;DHT22;39547;45.554;12.068;2023-02-03T19:04:36;6.30;88.10
53645;DHT22;39547;45.554;12.068;2023-02-03T19:10:38;6.30;88.10
53645;DHT22;39547;45.554;12.068;2023-02-03T19:16:39;6.20;88.30
53645;DHT22;39547;45.554;12.068;2023-02-03T19:22:41;6.20;88.20
53645;DHT22;39547;45.554;12.068;2023-02-03T19:28:42;6.20;88.30
53645;DHT22;39547;45.554;12.068;2023-02-03T19:34:44;6.20;88.40
53645;DHT22;39547;45.554;12.068;2023-02-03T19:40:45;6.20;88.40
53645;DHT22;39547;45.554;12.068;2023-02-03T19:46:46;6.10;88.60
53645;DHT22;39547;45.554;12.068;2023-02-03T19:52:48;6.10;88.70
53645;DHT22;39547;45.554;12.068;2023-02-03T19:58:49;6.10;88.70
53645;DHT22;39547;45.554;12.068;2023-02-03T20:04:52;6.10;88.30
53645;DHT22;39547;45.554;12.068;2023-02-03T20:10:53;6.10;88.50
53645;DHT22;39547;45.554;12.068;2023-02-03T20:16:55;6.10;88.60
53645;DHT22;39547;45.554;12.068;2023-02-03T20:22:56;6.00;88.60
53645;DHT22;39547;45.554;12.068;2023-02-03T20:28:58;6.00;88.70
53645;DHT22;39547;45.554;12.068;2023-02-03T20:34:59;6.00;88.80
53645;DHT22;39547;45.554;12.068;2023-02-03T20:41:00;5.90;88.40
53645;DHT22;39547;45.554;12.068;2023-02-03T20:47:02;5.90;88.70
53645;DHT22;39547;45.554;12.068;2023-02-03T20:53:13;5.90;88.70
53645;DHT22;39547;45.554;12.068;2023-02-03T20:59:18;5.90;88.70
53645;DHT22;39547;45.554;12.068;2023-02-03T21:05:25;5.80;88.70
53645;DHT22;39547;45.554;12.068;2023-02-03T21:11:28;5.70;88.60
53645;DHT22;39547;45.554;12.068;2023-02-03T21:17:33;5.60;88.60
53645;DHT22;39547;45.554;12.068;2023-02-03T21:23:40;5.50;88.70
53645;DHT22;39547;45.554;12.068;2023-02-03T21:29:42;5.50;88.90
53645;DHT22;39547;45.554;12.068;2023-02-03T21:35:43;5.40;88.60
53645;DHT22;39547;45.554;12.068;2023-02-03T21:41:46;5.30;88.80
53645;DHT22;39547;45.554;12.068;2023-02-03T21:47:50;5.30;88.80
53645;DHT22;39547;45.554;12.068;2023-02-03T21:54:00;5.20;88.90
53645;DHT22;39547;45.554;12.068;2023-02-03T22:06:48;5.10;88.80
53645;DHT22;39547;45.554;12.068;2023-02-03T22:12:49;5.10;88.20
53645;DHT22;39547;45.554;12.068;2023-02-03T22:18:51;5.00;88.40
53645;DHT22;39547;45.554;12.068;2023-02-03T22:24:52;4.90;88.70
53645;DHT22;39547;45.554;12.068;2023-02-03T22:30:54;4.80;88.60
53645;DHT22;39547;45.554;12.068;2023-02-03T22:36:55;4.70;88.60
53645;DHT22;39547;45.554;12.068;2023-02-03T22:42:56;4.70;88.80
53645;DHT22;39547;45.554;12.068;2023-02-03T22:48:58;4.70;88.80
53645;DHT22;39547;45.554;12.068;2023-02-03T22:54:59;4.60;88.80
53645;DHT22;39547;45.554;12.068;2023-02-03T23:01:01;4.50;88.20
53645;DHT22;39547;45.554;12.068;2023-02-03T23:07:02;4.40;88.30
53645;DHT22;39547;45.554;12.068;2023-02-03T23:13:04;4.40;88.60
53645;DHT22;39547;45.554;12.068;2023-02-03T23:19:05;4.30;88.00
53645;DHT22;39547;45.554;12.068;2023-02-03T23:25:07;4.20;88.50
53645;DHT22;39547;45.554;12.068;2023-02-03T23:31:08;4.20;88.60
53645;DHT22;39547;45.554;12.068;2023-02-03T23:37:10;4.20;88.80
53645;DHT22;39547;45.554;12.068;2023-02-03T23:43:12;4.20;88.70
53645;DHT22;39547;45.554;12.068;2023-02-03T23:49:13;4.10;88.10
53645;DHT22;39547;45.554;12.068;2023-02-03T23:55:17;3.90;88.20
